Strona główna
METAR-TAF:

METAR-TAF

Lotnisko :

Henderson City-County Airport

Henderson, Kentucky, Stany Zjednoczone

Szerokość geograficzna: 37-49N, Długość geograficzna: 087-41W, wysokość: 117 m

Aktualna obserwacja pogody

Raport powstał 23 minut temu, godzina 04:56 UTC
Wiatr 8 kt od północ
Temperatura 20°C
Wilgotność 78%
Ciśnienie 1018 hPa
Widzialność: 16.1 km
bezchmurnie

METAR: KEHR 230456Z AUTO 01008KT 10SM CLR 20/16 A3005 RMK AO2 SLP174 T02000161 402560200

czas: 00:19 (05:19 UTC)


TAF: brakujący

Obserwacja i prognoza pogody dla ponad 4000 lotnisk (raport METAR i TAF).

Dostępne stacje oznaczono żółtymi i czerwonymi punktami na mapie.

Najedź kursorem aby zobaczyć nazwę stacji.

Kliknij aby zobaczyć obserwacje i prognozy pogody.

Aby zmienić mapę: kliknij na zielony przycisk z czarnym krzyżykiem, aby powiększyć; na zielony przycisk z myślnikiem, aby pomniejszyć; na zielone strzałki, aby przejść do map sąsiednich.


METAR-TAF: